East Meredith, New York
Current Conditions -  °F | °C
As of 7:35 AM on Saturday 01 Nov 2014 (Local Time) from KNY0 Reporting Station
Overcast Overcast  
Wind Chill: 33°   Ceiling: 6000
Heat Index: 38°   Visibility: 10mi
Dew Point: 29°   Wind: 7mph
Humidity: 70%   Direction: 40°NE
Pressure: 29.96"   Gusts: NA
Location:  42.42°N, 74.89°W
Report Text: KNY0 011135Z AUTO 04006KT 10SM OVC060 04/M01 A2996 RMK AO2 T00361015
Loading
Personal Weather Stations






























Interactive Weather Map
Tropical Storm Tracking
New forecast layout! Learn more

10-Day Weather Forecast

Advertisements
Track Severe Weather on mobile